ERF weather

Erfurt Airport
Erfurt, Thuringia, Germany

Public forecast

Using degrees Celsius for public forecast. Weather courtesy of forecast.io.

METAR (pilot weather report)

Retrieved 2019/05/25 21:20 UTC (0 seconds ago):

EDDE 252120Z 35003KT CAVOK 11/07 Q1017

TAF (pilot weather forecast)

Retrieved 2019/05/25 18:27 UTC (3 hours ago):

TAF TAF COR EDDE 251705Z 2518/2618 34006KT CAVOK BECMG 2519/2521 23004KT BECMG 2606/2608 26009KT PROB30 TEMPO 2612/2615 25015G25KT